sensor_id;sensor_type;location;lat;lon;timestamp;P1;durP1;ratioP1;P2;durP2;ratioP2
33993;SDS011;20673;48.980;8.138;2023-07-22T00:01:14;3.08;;;2.37;;
33993;SDS011;20673;48.980;8.138;2023-07-22T00:03:40;3.53;;;2.40;;
33993;SDS011;20673;48.980;8.138;2023-07-22T00:06:09;2.77;;;2.35;;
33993;SDS011;20673;48.980;8.138;2023-07-22T00:08:37;3.02;;;2.30;;
33993;SDS011;20673;48.980;8.138;2023-07-22T00:11:04;4.05;;;2.35;;
33993;SDS011;20673;48.980;8.138;2023-07-22T00:13:31;4.35;;;2.70;;
33993;SDS011;20673;48.980;8.138;2023-07-22T00:15:58;3.65;;;2.35;;
33993;SDS011;20673;48.980;8.138;2023-07-22T00:18:26;3.55;;;2.47;;
33993;SDS011;20673;48.980;8.138;2023-07-22T00:20:54;3.77;;;3.13;;
33993;SDS011;20673;48.980;8.138;2023-07-22T00:23:20;5.87;;;3.35;;
33993;SDS011;20673;48.980;8.138;2023-07-22T00:25:46;5.78;;;3.02;;
33993;SDS011;20673;48.980;8.138;2023-07-22T00:28:13;4.85;;;3.08;;
33993;SDS011;20673;48.980;8.138;2023-07-22T00:30:40;4.45;;;3.10;;
33993;SDS011;20673;48.980;8.138;2023-07-22T00:33:07;6.28;;;3.47;;
33993;SDS011;20673;48.980;8.138;2023-07-22T00:35:34;4.60;;;3.40;;
33993;SDS011;20673;48.980;8.138;2023-07-22T00:38:01;4.00;;;3.08;;
33993;SDS011;20673;48.980;8.138;2023-07-22T00:40:27;4.93;;;3.13;;
33993;SDS011;20673;48.980;8.138;2023-07-22T00:42:56;5.60;;;3.55;;
33993;SDS011;20673;48.980;8.138;2023-07-22T00:45:22;4.40;;;3.27;;
33993;SDS011;20673;48.980;8.138;2023-07-22T00:47:48;4.08;;;3.22;;
33993;SDS011;20673;48.980;8.138;2023-07-22T00:50:15;4.60;;;2.85;;
33993;SDS011;20673;48.980;8.138;2023-07-22T00:52:41;5.55;;;3.10;;
33993;SDS011;20673;48.980;8.138;2023-07-22T00:55:08;4.92;;;3.40;;
33993;SDS011;20673;48.980;8.138;2023-07-22T00:57:35;5.22;;;3.27;;
33993;SDS011;20673;48.980;8.138;2023-07-22T01:00:03;4.17;;;2.83;;
33993;SDS011;20673;48.980;8.138;2023-07-22T01:02:31;4.45;;;3.05;;
33993;SDS011;20673;48.980;8.138;2023-07-22T01:04:59;5.05;;;2.80;;
33993;SDS011;20673;48.980;8.138;2023-07-22T01:07:26;4.55;;;3.20;;
33993;SDS011;20673;48.980;8.138;2023-07-22T01:09:55;3.00;;;2.70;;
33993;SDS011;20673;48.980;8.138;2023-07-22T01:12:23;4.95;;;2.77;;
33993;SDS011;20673;48.980;8.138;2023-07-22T01:14:50;2.95;;;2.30;;
33993;SDS011;20673;48.980;8.138;2023-07-22T01:17:18;3.12;;;2.60;;
33993;SDS011;20673;48.980;8.138;2023-07-22T01:19:44;3.27;;;2.75;;
33993;SDS011;20673;48.980;8.138;2023-07-22T01:22:12;4.33;;;2.98;;
33993;SDS011;20673;48.980;8.138;2023-07-22T01:24:40;6.37;;;3.33;;
33993;SDS011;20673;48.980;8.138;2023-07-22T01:27:07;4.47;;;2.90;;
33993;SDS011;20673;48.980;8.138;2023-07-22T01:29:35;4.40;;;2.65;;
33993;SDS011;20673;48.980;8.138;2023-07-22T01:32:02;3.60;;;2.92;;
33993;SDS011;20673;48.980;8.138;2023-07-22T01:34:28;4.85;;;3.15;;
33993;SDS011;20673;48.980;8.138;2023-07-22T01:36:56;4.60;;;3.35;;
33993;SDS011;20673;48.980;8.138;2023-07-22T01:39:23;3.92;;;2.83;;
33993;SDS011;20673;48.980;8.138;2023-07-22T01:41:49;6.03;;;3.42;;
33993;SDS011;20673;48.980;8.138;2023-07-22T01:44:15;4.25;;;3.00;;
33993;SDS011;20673;48.980;8.138;2023-07-22T01:46:41;4.58;;;3.02;;
33993;SDS011;20673;48.980;8.138;2023-07-22T01:49:09;6.78;;;3.10;;
33993;SDS011;20673;48.980;8.138;2023-07-22T01:51:38;6.83;;;4.15;;
33993;SDS011;20673;48.980;8.138;2023-07-22T01:54:06;5.95;;;4.47;;
33993;SDS011;20673;48.980;8.138;2023-07-22T01:56:32;5.87;;;4.50;;
33993;SDS011;20673;48.980;8.138;2023-07-22T01:58:59;6.37;;;3.62;;
33993;SDS011;20673;48.980;8.138;2023-07-22T02:01:25;6.47;;;4.35;;
33993;SDS011;20673;48.980;8.138;2023-07-22T02:03:51;7.10;;;4.67;;
33993;SDS011;20673;48.980;8.138;2023-07-22T02:06:17;6.33;;;4.28;;
33993;SDS011;20673;48.980;8.138;2023-07-22T02:08:43;6.33;;;4.30;;
33993;SDS011;20673;48.980;8.138;2023-07-22T02:11:09;7.37;;;4.45;;
33993;SDS011;20673;48.980;8.138;2023-07-22T02:13:36;5.20;;;3.75;;
33993;SDS011;20673;48.980;8.138;2023-07-22T02:16:02;5.70;;;3.95;;
33993;SDS011;20673;48.980;8.138;2023-07-22T02:18:29;6.63;;;4.30;;
33993;SDS011;20673;48.980;8.138;2023-07-22T02:20:56;6.97;;;4.37;;
33993;SDS011;20673;48.980;8.138;2023-07-22T02:23:23;6.80;;;5.00;;
33993;SDS011;20673;48.980;8.138;2023-07-22T02:25:50;7.05;;;3.95;;
33993;SDS011;20673;48.980;8.138;2023-07-22T02:28:17;7.53;;;3.90;;
33993;SDS011;20673;48.980;8.138;2023-07-22T02:30:49;4.70;;;3.63;;
33993;SDS011;20673;48.980;8.138;2023-07-22T02:33:18;5.80;;;3.45;;
33993;SDS011;20673;48.980;8.138;2023-07-22T02:35:46;9.25;;;4.35;;
33993;SDS011;20673;48.980;8.138;2023-07-22T02:38:14;4.60;;;3.80;;
33993;SDS011;20673;48.980;8.138;2023-07-22T02:40:41;5.20;;;3.55;;
33993;SDS011;20673;48.980;8.138;2023-07-22T02:43:07;6.78;;;4.08;;
33993;SDS011;20673;48.980;8.138;2023-07-22T02:45:34;6.00;;;4.30;;
33993;SDS011;20673;48.980;8.138;2023-07-22T02:48:00;5.62;;;4.00;;
33993;SDS011;20673;48.980;8.138;2023-07-22T02:50:26;5.13;;;4.23;;
33993;SDS011;20673;48.980;8.138;2023-07-22T02:52:52;6.03;;;4.10;;
33993;SDS011;20673;48.980;8.138;2023-07-22T02:55:18;5.27;;;3.60;;
33993;SDS011;20673;48.980;8.138;2023-07-22T02:57:45;5.60;;;3.90;;
33993;SDS011;20673;48.980;8.138;2023-07-22T03:00:13;4.10;;;3.25;;
33993;SDS011;20673;48.980;8.138;2023-07-22T03:02:51;4.90;;;3.90;;
33993;SDS011;20673;48.980;8.138;2023-07-22T03:05:23;4.25;;;3.75;;
33993;SDS011;20673;48.980;8.138;2023-07-22T03:07:51;5.95;;;4.08;;
33993;SDS011;20673;48.980;8.138;2023-07-22T03:10:18;9.33;;;4.20;;
33993;SDS011;20673;48.980;8.138;2023-07-22T03:12:44;5.65;;;4.35;;
33993;SDS011;20673;48.980;8.138;2023-07-22T03:15:11;6.20;;;4.50;;
33993;SDS011;20673;48.980;8.138;2023-07-22T03:17:38;5.97;;;4.08;;
33993;SDS011;20673;48.980;8.138;2023-07-22T03:20:08;5.87;;;4.95;;
33993;SDS011;20673;48.980;8.138;2023-07-22T03:22:38;8.30;;;4.47;;
33993;SDS011;20673;48.980;8.138;2023-07-22T03:25:04;6.35;;;4.40;;
33993;SDS011;20673;48.980;8.138;2023-07-22T03:27:32;7.17;;;4.83;;
33993;SDS011;20673;48.980;8.138;2023-07-22T03:29:59;6.57;;;4.33;;
33993;SDS011;20673;48.980;8.138;2023-07-22T03:32:25;5.13;;;4.40;;
33993;SDS011;20673;48.980;8.138;2023-07-22T03:34:51;4.87;;;3.67;;
33993;SDS011;20673;48.980;8.138;2023-07-22T03:37:17;5.50;;;4.13;;
33993;SDS011;20673;48.980;8.138;2023-07-22T03:39:45;5.03;;;3.50;;
33993;SDS011;20673;48.980;8.138;2023-07-22T03:42:11;5.00;;;4.15;;
33993;SDS011;20673;48.980;8.138;2023-07-22T03:44:37;4.87;;;3.80;;
33993;SDS011;20673;48.980;8.138;2023-07-22T03:47:05;6.90;;;4.20;;
33993;SDS011;20673;48.980;8.138;2023-07-22T03:49:31;5.13;;;3.80;;
33993;SDS011;20673;48.980;8.138;2023-07-22T03:51:57;6.50;;;4.73;;
33993;SDS011;20673;48.980;8.138;2023-07-22T03:54:23;6.72;;;4.40;;
33993;SDS011;20673;48.980;8.138;2023-07-22T03:56:49;6.47;;;4.37;;
33993;SDS011;20673;48.980;8.138;2023-07-22T03:59:16;9.53;;;4.57;;
33993;SDS011;20673;48.980;8.138;2023-07-22T04:01:42;6.20;;;4.30;;
33993;SDS011;20673;48.980;8.138;2023-07-22T04:04:08;7.57;;;4.67;;
33993;SDS011;20673;48.980;8.138;2023-07-22T04:06:34;6.30;;;4.50;;
33993;SDS011;20673;48.980;8.138;2023-07-22T04:09:00;5.17;;;4.53;;
33993;SDS011;20673;48.980;8.138;2023-07-22T04:11:26;8.07;;;4.53;;
33993;SDS011;20673;48.980;8.138;2023-07-22T04:13:53;5.50;;;4.30;;
33993;SDS011;20673;48.980;8.138;2023-07-22T04:16:19;5.20;;;3.93;;
33993;SDS011;20673;48.980;8.138;2023-07-22T04:18:45;5.50;;;3.90;;
33993;SDS011;20673;48.980;8.138;2023-07-22T04:21:11;7.80;;;4.90;;
33993;SDS011;20673;48.980;8.138;2023-07-22T04:23:37;4.85;;;4.20;;
33993;SDS011;20673;48.980;8.138;2023-07-22T04:26:03;4.70;;;4.20;;
33993;SDS011;20673;48.980;8.138;2023-07-22T04:28:35;5.80;;;4.00;;
33993;SDS011;20673;48.980;8.138;2023-07-22T04:31:02;7.83;;;4.83;;
33993;SDS011;20673;48.980;8.138;2023-07-22T04:33:29;6.17;;;3.83;;
33993;SDS011;20673;48.980;8.138;2023-07-22T04:35:57;5.07;;;3.73;;
33993;SDS011;20673;48.980;8.138;2023-07-22T04:38:25;5.90;;;3.87;;
33993;SDS011;20673;48.980;8.138;2023-07-22T04:40:51;5.60;;;4.00;;
33993;SDS011;20673;48.980;8.138;2023-07-22T04:43:17;5.40;;;4.00;;
33993;SDS011;20673;48.980;8.138;2023-07-22T04:45:46;6.00;;;4.47;;
33993;SDS011;20673;48.980;8.138;2023-07-22T04:48:17;4.33;;;3.67;;
33993;SDS011;20673;48.980;8.138;2023-07-22T04:50:46;5.37;;;3.73;;
33993;SDS011;20673;48.980;8.138;2023-07-22T04:53:12;6.00;;;4.20;;
33993;SDS011;20673;48.980;8.138;2023-07-22T04:55:39;6.30;;;4.20;;
33993;SDS011;20673;48.980;8.138;2023-07-22T04:58:06;5.93;;;5.10;;
33993;SDS011;20673;48.980;8.138;2023-07-22T05:00:33;8.00;;;3.97;;
33993;SDS011;20673;48.980;8.138;2023-07-22T05:03:00;5.93;;;4.67;;
33993;SDS011;20673;48.980;8.138;2023-07-22T05:05:26;5.90;;;4.47;;
33993;SDS011;20673;48.980;8.138;2023-07-22T05:07:52;7.30;;;5.03;;
33993;SDS011;20673;48.980;8.138;2023-07-22T05:10:18;7.97;;;5.30;;
33993;SDS011;20673;48.980;8.138;2023-07-22T05:12:44;7.30;;;5.20;;
33993;SDS011;20673;48.980;8.138;2023-07-22T05:15:11;6.15;;;4.60;;
33993;SDS011;20673;48.980;8.138;2023-07-22T05:17:39;6.10;;;4.70;;
33993;SDS011;20673;48.980;8.138;2023-07-22T05:20:05;8.40;;;4.55;;
33993;SDS011;20673;48.980;8.138;2023-07-22T05:22:35;8.13;;;4.63;;
33993;SDS011;20673;48.980;8.138;2023-07-22T05:25:03;6.60;;;4.87;;
33993;SDS011;20673;48.980;8.138;2023-07-22T05:27:31;5.63;;;4.50;;
33993;SDS011;20673;48.980;8.138;2023-07-22T05:29:58;8.50;;;4.40;;
33993;SDS011;20673;48.980;8.138;2023-07-22T05:32:24;7.60;;;4.70;;
33993;SDS011;20673;48.980;8.138;2023-07-22T05:34:50;8.10;;;4.80;;
33993;SDS011;20673;48.980;8.138;2023-07-22T05:37:16;6.40;;;3.98;;
33993;SDS011;20673;48.980;8.138;2023-07-22T05:39:42;5.87;;;4.37;;
33993;SDS011;20673;48.980;8.138;2023-07-22T05:42:08;6.83;;;4.33;;
33993;SDS011;20673;48.980;8.138;2023-07-22T05:44:34;6.97;;;4.50;;
33993;SDS011;20673;48.980;8.138;2023-07-22T05:47:00;5.95;;;3.95;;
33993;SDS011;20673;48.980;8.138;2023-07-22T05:49:27;6.95;;;4.47;;
33993;SDS011;20673;48.980;8.138;2023-07-22T05:51:53;6.03;;;3.90;;
33993;SDS011;20673;48.980;8.138;2023-07-22T05:54:20;5.20;;;3.90;;
33993;SDS011;20673;48.980;8.138;2023-07-22T05:56:47;5.67;;;3.58;;
33993;SDS011;20673;48.980;8.138;2023-07-22T05:59:13;5.80;;;3.05;;
33993;SDS011;20673;48.980;8.138;2023-07-22T06:01:39;5.42;;;3.80;;
33993;SDS011;20673;48.980;8.138;2023-07-22T06:04:05;6.80;;;3.67;;
33993;SDS011;20673;48.980;8.138;2023-07-22T06:06:32;4.33;;;3.02;;
33993;SDS011;20673;48.980;8.138;2023-07-22T06:08:58;5.97;;;3.75;;
33993;SDS011;20673;48.980;8.138;2023-07-22T06:11:24;4.30;;;3.35;;
33993;SDS011;20673;48.980;8.138;2023-07-22T06:13:51;6.00;;;3.40;;
33993;SDS011;20673;48.980;8.138;2023-07-22T06:16:17;5.00;;;2.87;;
33993;SDS011;20673;48.980;8.138;2023-07-22T06:18:43;4.07;;;2.93;;
33993;SDS011;20673;48.980;8.138;2023-07-22T06:21:09;5.87;;;2.75;;
33993;SDS011;20673;48.980;8.138;2023-07-22T06:23:35;3.98;;;2.50;;
33993;SDS011;20673;48.980;8.138;2023-07-22T06:26:02;3.10;;;2.20;;
33993;SDS011;20673;48.980;8.138;2023-07-22T06:28:28;2.80;;;2.12;;
33993;SDS011;20673;48.980;8.138;2023-07-22T06:30:54;5.23;;;2.80;;
33993;SDS011;20673;48.980;8.138;2023-07-22T06:33:20;4.33;;;2.45;;
33993;SDS011;20673;48.980;8.138;2023-07-22T06:35:46;3.87;;;1.93;;
33993;SDS011;20673;48.980;8.138;2023-07-22T06:38:12;4.03;;;2.60;;
33993;SDS011;20673;48.980;8.138;2023-07-22T06:40:38;3.93;;;2.57;;
33993;SDS011;20673;48.980;8.138;2023-07-22T06:43:04;5.70;;;2.80;;
33993;SDS011;20673;48.980;8.138;2023-07-22T06:45:31;5.20;;;3.07;;
33993;SDS011;20673;48.980;8.138;2023-07-22T06:47:58;9.20;;;3.20;;
33993;SDS011;20673;48.980;8.138;2023-07-22T06:50:24;5.97;;;3.10;;
33993;SDS011;20673;48.980;8.138;2023-07-22T06:52:51;5.20;;;3.20;;
33993;SDS011;20673;48.980;8.138;2023-07-22T06:55:17;6.12;;;3.00;;
33993;SDS011;20673;48.980;8.138;2023-07-22T06:57:43;4.97;;;3.37;;
33993;SDS011;20673;48.980;8.138;2023-07-22T07:00:09;4.77;;;3.43;;
33993;SDS011;20673;48.980;8.138;2023-07-22T07:02:36;4.47;;;2.90;;
33993;SDS011;20673;48.980;8.138;2023-07-22T07:05:02;5.73;;;2.83;;
33993;SDS011;20673;48.980;8.138;2023-07-22T07:07:29;5.30;;;2.77;;
33993;SDS011;20673;48.980;8.138;2023-07-22T07:09:55;3.77;;;2.60;;
33993;SDS011;20673;48.980;8.138;2023-07-22T07:12:21;4.35;;;2.77;;
33993;SDS011;20673;48.980;8.138;2023-07-22T07:14:50;2.83;;;2.40;;
33993;SDS011;20673;48.980;8.138;2023-07-22T07:17:17;4.50;;;2.33;;
33993;SDS011;20673;48.980;8.138;2023-07-22T07:19:43;3.42;;;2.40;;
33993;SDS011;20673;48.980;8.138;2023-07-22T07:22:09;3.37;;;2.60;;
33993;SDS011;20673;48.980;8.138;2023-07-22T07:24:35;3.17;;;2.08;;
33993;SDS011;20673;48.980;8.138;2023-07-22T07:27:02;3.62;;;2.40;;
33993;SDS011;20673;48.980;8.138;2023-07-22T07:29:28;2.58;;;2.25;;
33993;SDS011;20673;48.980;8.138;2023-07-22T07:31:54;3.57;;;2.50;;
33993;SDS011;20673;48.980;8.138;2023-07-22T07:34:20;3.65;;;1.90;;
33993;SDS011;20673;48.980;8.138;2023-07-22T07:36:46;4.00;;;2.17;;
33993;SDS011;20673;48.980;8.138;2023-07-22T07:39:14;4.67;;;2.17;;
33993;SDS011;20673;48.980;8.138;2023-07-22T07:41:40;3.07;;;2.20;;
33993;SDS011;20673;48.980;8.138;2023-07-22T07:44:06;4.10;;;2.33;;
33993;SDS011;20673;48.980;8.138;2023-07-22T07:46:32;3.70;;;2.20;;
33993;SDS011;20673;48.980;8.138;2023-07-22T07:48:59;3.08;;;1.87;;
33993;SDS011;20673;48.980;8.138;2023-07-22T07:51:26;3.93;;;2.30;;
33993;SDS011;20673;48.980;8.138;2023-07-22T07:53:55;5.20;;;2.40;;
33993;SDS011;20673;48.980;8.138;2023-07-22T07:56:23;4.37;;;2.12;;
33993;SDS011;20673;48.980;8.138;2023-07-22T07:58:51;3.58;;;1.95;;
33993;SDS011;20673;48.980;8.138;2023-07-22T08:01:19;3.62;;;1.87;;
33993;SDS011;20673;48.980;8.138;2023-07-22T08:03:46;2.02;;;1.75;;
33993;SDS011;20673;48.980;8.138;2023-07-22T08:06:12;1.92;;;1.60;;
33993;SDS011;20673;48.980;8.138;2023-07-22T08:08:39;3.37;;;1.75;;
33993;SDS011;20673;48.980;8.138;2023-07-22T08:11:09;3.15;;;1.95;;
33993;SDS011;20673;48.980;8.138;2023-07-22T08:13:40;3.22;;;2.08;;
33993;SDS011;20673;48.980;8.138;2023-07-22T08:16:10;3.95;;;1.98;;
33993;SDS011;20673;48.980;8.138;2023-07-22T08:18:38;3.35;;;1.98;;
33993;SDS011;20673;48.980;8.138;2023-07-22T08:21:04;3.47;;;2.00;;
33993;SDS011;20673;48.980;8.138;2023-07-22T08:23:33;4.37;;;2.10;;
33993;SDS011;20673;48.980;8.138;2023-07-22T08:25:59;5.95;;;1.90;;
33993;SDS011;20673;48.980;8.138;2023-07-22T08:28:26;5.08;;;1.92;;
33993;SDS011;20673;48.980;8.138;2023-07-22T08:30:56;2.35;;;1.90;;
33993;SDS011;20673;48.980;8.138;2023-07-22T08:33:23;2.35;;;1.72;;
33993;SDS011;20673;48.980;8.138;2023-07-22T08:35:53;3.00;;;1.85;;
33993;SDS011;20673;48.980;8.138;2023-07-22T08:38:19;2.58;;;1.40;;
33993;SDS011;20673;48.980;8.138;2023-07-22T08:40:47;3.17;;;1.67;;
33993;SDS011;20673;48.980;8.138;2023-07-22T08:43:19;3.40;;;1.90;;
33993;SDS011;20673;48.980;8.138;2023-07-22T08:45:47;2.70;;;1.98;;
33993;SDS011;20673;48.980;8.138;2023-07-22T08:48:17;5.25;;;1.90;;
33993;SDS011;20673;48.980;8.138;2023-07-22T08:50:51;3.33;;;1.65;;
33993;SDS011;20673;48.980;8.138;2023-07-22T08:53:21;5.28;;;1.47;;
33993;SDS011;20673;48.980;8.138;2023-07-22T08:55:51;4.72;;;1.40;;
33993;SDS011;20673;48.980;8.138;2023-07-22T08:58:17;3.40;;;1.65;;
33993;SDS011;20673;48.980;8.138;2023-07-22T09:00:44;2.83;;;1.70;;
33993;SDS011;20673;48.980;8.138;2023-07-22T09:03:11;5.80;;;1.65;;
33993;SDS011;20673;48.980;8.138;2023-07-22T09:05:37;2.45;;;1.85;;
33993;SDS011;20673;48.980;8.138;2023-07-22T09:08:05;3.75;;;2.08;;
33993;SDS011;20673;48.980;8.138;2023-07-22T09:10:33;2.80;;;1.77;;
33993;SDS011;20673;48.980;8.138;2023-07-22T09:13:00;5.60;;;1.98;;
33993;SDS011;20673;48.980;8.138;2023-07-22T09:15:27;2.52;;;1.70;;
33993;SDS011;20673;48.980;8.138;2023-07-22T09:17:54;3.10;;;1.70;;
33993;SDS011;20673;48.980;8.138;2023-07-22T09:20:20;4.70;;;1.72;;
33993;SDS011;20673;48.980;8.138;2023-07-22T09:22:52;4.03;;;1.90;;
33993;SDS011;20673;48.980;8.138;2023-07-22T09:25:18;1.87;;;1.57;;
33993;SDS011;20673;48.980;8.138;2023-07-22T09:27:47;3.40;;;1.60;;
33993;SDS011;20673;48.980;8.138;2023-07-22T09:33:01;2.40;;;1.50;;
33993;SDS011;20673;48.980;8.138;2023-07-22T09:35:30;1.75;;;1.37;;
33993;SDS011;20673;48.980;8.138;2023-07-22T09:38:09;2.17;;;1.70;;
33993;SDS011;20673;48.980;8.138;2023-07-22T09:40:35;4.22;;;1.92;;
33993;SDS011;20673;48.980;8.138;2023-07-22T09:43:03;5.15;;;1.72;;
33993;SDS011;20673;48.980;8.138;2023-07-22T09:45:31;1.85;;;1.60;;
33993;SDS011;20673;48.980;8.138;2023-07-22T09:47:57;6.42;;;2.12;;
33993;SDS011;20673;48.980;8.138;2023-07-22T09:50:25;2.42;;;1.77;;
33993;SDS011;20673;48.980;8.138;2023-07-22T09:52:53;4.00;;;1.80;;
33993;SDS011;20673;48.980;8.138;2023-07-22T09:55:23;13.60;;;3.92;;
33993;SDS011;20673;48.980;8.138;2023-07-22T09:57:57;4.57;;;1.73;;
33993;SDS011;20673;48.980;8.138;2023-07-22T10:00:31;3.70;;;2.12;;
33993;SDS011;20673;48.980;8.138;2023-07-22T10:03:00;7.55;;;2.72;;
33993;SDS011;20673;48.980;8.138;2023-07-22T10:05:33;4.12;;;2.33;;
33993;SDS011;20673;48.980;8.138;2023-07-22T10:08:01;3.33;;;1.50;;
33993;SDS011;20673;48.980;8.138;2023-07-22T10:13:04;4.55;;;1.70;;
33993;SDS011;20673;48.980;8.138;2023-07-22T10:15:32;16.20;;;3.67;;
33993;SDS011;20673;48.980;8.138;2023-07-22T10:18:00;7.87;;;2.40;;
33993;SDS011;20673;48.980;8.138;2023-07-22T10:20:29;17.17;;;4.30;;
33993;SDS011;20673;48.980;8.138;2023-07-22T10:22:56;1.75;;;1.30;;
33993;SDS011;20673;48.980;8.138;2023-07-22T10:25:24;2.58;;;1.50;;
33993;SDS011;20673;48.980;8.138;2023-07-22T10:27:51;2.67;;;1.70;;
33993;SDS011;20673;48.980;8.138;2023-07-22T10:30:20;3.50;;;1.57;;
33993;SDS011;20673;48.980;8.138;2023-07-22T10:32:51;3.40;;;1.57;;
33993;SDS011;20673;48.980;8.138;2023-07-22T10:38:08;3.50;;;1.60;;
33993;SDS011;20673;48.980;8.138;2023-07-22T10:40:47;1.80;;;1.50;;
33993;SDS011;20673;48.980;8.138;2023-07-22T10:43:23;3.33;;;1.72;;
33993;SDS011;20673;48.980;8.138;2023-07-22T10:45:58;4.25;;;1.50;;
33993;SDS011;20673;48.980;8.138;2023-07-22T10:48:34;4.15;;;1.50;;
33993;SDS011;20673;48.980;8.138;2023-07-22T10:51:15;2.62;;;1.40;;
33993;SDS011;20673;48.980;8.138;2023-07-22T10:53:42;3.17;;;1.82;;
33993;SDS011;20673;48.980;8.138;2023-07-22T11:06:58;2.55;;;1.50;;
33993;SDS011;20673;48.980;8.138;2023-07-22T11:12:10;2.55;;;1.42;;
33993;SDS011;20673;48.980;8.138;2023-07-22T11:14:46;2.02;;;1.27;;
33993;SDS011;20673;48.980;8.138;2023-07-22T11:17:27;3.05;;;1.65;;
33993;SDS011;20673;48.980;8.138;2023-07-22T11:19:56;2.45;;;1.20;;
33993;SDS011;20673;48.980;8.138;2023-07-22T11:22:24;1.90;;;1.20;;
33993;SDS011;20673;48.980;8.138;2023-07-22T11:24:52;2.30;;;1.47;;
33993;SDS011;20673;48.980;8.138;2023-07-22T11:27:18;1.75;;;1.30;;
33993;SDS011;20673;48.980;8.138;2023-07-22T11:29:45;1.75;;;1.47;;
33993;SDS011;20673;48.980;8.138;2023-07-22T11:32:17;1.35;;;1.00;;
33993;SDS011;20673;48.980;8.138;2023-07-22T11:34:46;2.17;;;1.37;;
33993;SDS011;20673;48.980;8.138;2023-07-22T11:37:13;3.62;;;1.45;;
33993;SDS011;20673;48.980;8.138;2023-07-22T11:39:40;1.70;;;1.37;;
33993;SDS011;20673;48.980;8.138;2023-07-22T11:42:10;2.98;;;1.35;;
33993;SDS011;20673;48.980;8.138;2023-07-22T11:44:38;2.10;;;1.30;;
33993;SDS011;20673;48.980;8.138;2023-07-22T11:47:05;1.82;;;1.20;;
33993;SDS011;20673;48.980;8.138;2023-07-22T11:49:38;2.17;;;1.45;;
33993;SDS011;20673;48.980;8.138;2023-07-22T11:52:09;4.97;;;1.80;;
33993;SDS011;20673;48.980;8.138;2023-07-22T11:54:41;2.42;;;1.50;;
33993;SDS011;20673;48.980;8.138;2023-07-22T11:57:09;1.60;;;1.20;;
33993;SDS011;20673;48.980;8.138;2023-07-22T11:59:49;3.27;;;1.47;;
33993;SDS011;20673;48.980;8.138;2023-07-22T12:02:18;3.92;;;1.45;;
33993;SDS011;20673;48.980;8.138;2023-07-22T12:07:31;5.17;;;1.57;;
33993;SDS011;20673;48.980;8.138;2023-07-22T12:10:02;4.55;;;1.60;;
33993;SDS011;20673;48.980;8.138;2023-07-22T12:12:34;2.50;;;1.30;;
33993;SDS011;20673;48.980;8.138;2023-07-22T12:15:11;5.17;;;1.60;;
33993;SDS011;20673;48.980;8.138;2023-07-22T12:17:53;2.05;;;1.62;;
33993;SDS011;20673;48.980;8.138;2023-07-22T12:20:27;4.40;;;1.70;;
33993;SDS011;20673;48.980;8.138;2023-07-22T12:22:57;3.95;;;1.57;;
33993;SDS011;20673;48.980;8.138;2023-07-22T12:25:24;1.25;;;1.05;;
33993;SDS011;20673;48.980;8.138;2023-07-22T12:27:51;4.55;;;1.90;;
33993;SDS011;20673;48.980;8.138;2023-07-22T12:30:17;2.10;;;1.50;;
33993;SDS011;20673;48.980;8.138;2023-07-22T12:32:44;3.98;;;2.08;;
33993;SDS011;20673;48.980;8.138;2023-07-22T12:35:10;1.98;;;1.60;;
33993;SDS011;20673;48.980;8.138;2023-07-22T12:37:38;5.92;;;1.98;;
33993;SDS011;20673;48.980;8.138;2023-07-22T12:40:05;2.27;;;1.65;;
33993;SDS011;20673;48.980;8.138;2023-07-22T12:42:37;4.03;;;1.80;;
33993;SDS011;20673;48.980;8.138;2023-07-22T12:45:02;3.65;;;1.92;;
33993;SDS011;20673;48.980;8.138;2023-07-22T12:47:33;6.67;;;2.27;;
33993;SDS011;20673;48.980;8.138;2023-07-22T12:49:59;2.42;;;1.60;;
33993;SDS011;20673;48.980;8.138;2023-07-22T12:52:25;2.75;;;1.60;;
33993;SDS011;20673;48.980;8.138;2023-07-22T12:54:51;4.22;;;1.70;;
33993;SDS011;20673;48.980;8.138;2023-07-22T12:57:18;3.80;;;1.90;;
33993;SDS011;20673;48.980;8.138;2023-07-22T12:59:44;3.90;;;1.77;;
33993;SDS011;20673;48.980;8.138;2023-07-22T13:02:10;3.35;;;2.08;;
33993;SDS011;20673;48.980;8.138;2023-07-22T13:04:36;4.37;;;1.98;;
33993;SDS011;20673;48.980;8.138;2023-07-22T13:07:02;3.62;;;1.98;;
33993;SDS011;20673;48.980;8.138;2023-07-22T13:09:28;2.05;;;1.85;;
33993;SDS011;20673;48.980;8.138;2023-07-22T13:11:55;3.98;;;2.10;;
33993;SDS011;20673;48.980;8.138;2023-07-22T13:14:21;6.45;;;1.85;;
33993;SDS011;20673;48.980;8.138;2023-07-22T13:16:47;4.42;;;2.05;;
33993;SDS011;20673;48.980;8.138;2023-07-22T13:19:13;3.70;;;2.10;;
33993;SDS011;20673;48.980;8.138;2023-07-22T13:21:39;2.75;;;2.08;;
33993;SDS011;20673;48.980;8.138;2023-07-22T13:24:06;3.52;;;1.80;;
33993;SDS011;20673;48.980;8.138;2023-07-22T13:26:33;3.27;;;2.20;;
33993;SDS011;20673;48.980;8.138;2023-07-22T13:29:01;5.85;;;2.22;;
33993;SDS011;20673;48.980;8.138;2023-07-22T13:31:27;3.30;;;2.35;;
33993;SDS011;20673;48.980;8.138;2023-07-22T13:33:53;5.22;;;2.33;;
33993;SDS011;20673;48.980;8.138;2023-07-22T13:36:19;2.42;;;1.82;;
33993;SDS011;20673;48.980;8.138;2023-07-22T13:38:45;3.80;;;1.80;;
33993;SDS011;20673;48.980;8.138;2023-07-22T13:41:11;3.75;;;2.52;;
33993;SDS011;20673;48.980;8.138;2023-07-22T13:43:37;3.95;;;2.05;;
33993;SDS011;20673;48.980;8.138;2023-07-22T13:46:03;4.22;;;2.05;;
33993;SDS011;20673;48.980;8.138;2023-07-22T13:48:30;4.65;;;2.20;;
33993;SDS011;20673;48.980;8.138;2023-07-22T13:50:56;5.12;;;2.10;;
33993;SDS011;20673;48.980;8.138;2023-07-22T13:53:22;3.02;;;2.40;;
33993;SDS011;20673;48.980;8.138;2023-07-22T13:55:48;3.67;;;2.00;;
33993;SDS011;20673;48.980;8.138;2023-07-22T13:58:14;2.65;;;2.00;;
33993;SDS011;20673;48.980;8.138;2023-07-22T14:00:40;3.50;;;2.22;;
33993;SDS011;20673;48.980;8.138;2023-07-22T14:03:06;4.05;;;2.30;;
33993;SDS011;20673;48.980;8.138;2023-07-22T14:05:32;3.65;;;1.80;;
33993;SDS011;20673;48.980;8.138;2023-07-22T14:07:58;3.00;;;1.98;;
33993;SDS011;20673;48.980;8.138;2023-07-22T14:10:24;2.50;;;2.10;;
33993;SDS011;20673;48.980;8.138;2023-07-22T14:12:51;3.87;;;2.50;;
33993;SDS011;20673;48.980;8.138;2023-07-22T14:15:17;9.13;;;2.87;;
33993;SDS011;20673;48.980;8.138;2023-07-22T14:17:43;5.03;;;3.60;;
33993;SDS011;20673;48.980;8.138;2023-07-22T14:20:10;6.30;;;2.50;;
33993;SDS011;20673;48.980;8.138;2023-07-22T14:22:37;8.45;;;3.25;;
33993;SDS011;20673;48.980;8.138;2023-07-22T14:25:03;3.95;;;3.42;;
33993;SDS011;20673;48.980;8.138;2023-07-22T14:27:30;9.05;;;6.60;;
33993;SDS011;20673;48.980;8.138;2023-07-22T14:29:56;4.55;;;3.65;;
33993;SDS011;20673;48.980;8.138;2023-07-22T14:32:22;4.97;;;2.70;;
33993;SDS011;20673;48.980;8.138;2023-07-22T14:34:48;4.12;;;3.55;;
33993;SDS011;20673;48.980;8.138;2023-07-22T14:37:15;7.83;;;3.77;;
33993;SDS011;20673;48.980;8.138;2023-07-22T14:39:41;4.75;;;4.30;;
33993;SDS011;20673;48.980;8.138;2023-07-22T14:42:08;9.10;;;6.42;;
33993;SDS011;20673;48.980;8.138;2023-07-22T14:44:35;7.08;;;5.87;;
33993;SDS011;20673;48.980;8.138;2023-07-22T14:47:02;6.28;;;3.20;;
33993;SDS011;20673;48.980;8.138;2023-07-22T14:49:30;3.62;;;2.45;;
33993;SDS011;20673;48.980;8.138;2023-07-22T14:51:57;7.60;;;5.05;;
33993;SDS011;20673;48.980;8.138;2023-07-22T14:54:23;4.60;;;2.75;;
33993;SDS011;20673;48.980;8.138;2023-07-22T14:56:49;3.35;;;2.33;;
33993;SDS011;20673;48.980;8.138;2023-07-22T14:59:15;2.45;;;2.12;;
33993;SDS011;20673;48.980;8.138;2023-07-22T15:01:42;6.45;;;2.40;;
33993;SDS011;20673;48.980;8.138;2023-07-22T15:04:08;2.83;;;2.30;;
33993;SDS011;20673;48.980;8.138;2023-07-22T15:06:35;3.33;;;2.58;;
33993;SDS011;20673;48.980;8.138;2023-07-22T15:09:02;3.98;;;3.10;;
33993;SDS011;20673;48.980;8.138;2023-07-22T15:11:33;3.33;;;2.87;;
33993;SDS011;20673;48.980;8.138;2023-07-22T15:14:01;4.95;;;2.10;;